Terminal Aerodrome Forecast
Issued by NWS Grand Forks, ND

Home | Current Version | Previous Version | Text Only | Print | Product List | Glossary On
Versions: 1 2 3 4 5 6 7 8 9 10 11 12 13 14 15
000
FTUS43 KFGF 230520
TAFGFK
TAF
KGFK 230520Z 2306/2406 26007KT P6SM OVC030
     FM231000 25006KT P6SM OVC025
     FM232100 24006KT P6SM BKN020
     FM240200 20006KT P6SM BKN015=

USA.gov is the U.S. government's official web portal to all federal, state and local government web resources and services.